sensor_id;sensor_type;location;lat;lon;timestamp;pressure;altitude;pressure_sealevel;temperature;humidity
44531;BME280;30240;47.418;0.700;2022-08-21T00:01:49;100527.31323242188;;;18.56;69.04
44531;BME280;30240;47.418;0.700;2022-08-21T00:04:14;100527.31323242188;;;18.56;69.04
44531;BME280;30240;47.418;0.700;2022-08-21T00:06:39;100532.97729492188;;;18.55;69.05
44531;BME280;30240;47.418;0.700;2022-08-21T00:09:06;100527.7099609375;;;18.57;69.02
44531;BME280;30240;47.418;0.700;2022-08-21T00:11:28;100529.0283203125;;;18.45;69.23
44531;BME280;30240;47.418;0.700;2022-08-21T00:13:56;100526.55639648438;;;18.38;68.98
44531;BME280;30240;47.418;0.700;2022-08-21T00:16:19;100526.55639648438;;;18.38;68.98
44531;BME280;30240;47.418;0.700;2022-08-21T00:18:44;100520.5322265625;;;18.34;68.74
44531;BME280;30240;47.418;0.700;2022-08-21T00:21:10;100528.01513671875;;;18.28;68.69
44531;BME280;30240;47.418;0.700;2022-08-21T00:23:34;100521.28295898438;;;18.22;69.04
44531;BME280;30240;47.418;0.700;2022-08-21T00:25:59;100510.29663085938;;;18.35;68.79
44531;BME280;30240;47.418;0.700;2022-08-21T00:28:23;100510.29663085938;;;18.35;68.79
44531;BME280;30240;47.418;0.700;2022-08-21T00:30:48;100507.23266601562;;;18.22;68.84
44531;BME280;30240;47.418;0.700;2022-08-21T00:33:14;100508.96606445312;;;18.1;69.24
44531;BME280;30240;47.418;0.700;2022-08-21T00:35:41;100516.56494140625;;;18.05;69.61
44531;BME280;30240;47.418;0.700;2022-08-21T00:38:05;100517.54760742188;;;18.11;69.72
44531;BME280;30240;47.418;0.700;2022-08-21T00:40:32;100517.54760742188;;;18.11;69.72
44531;BME280;30240;47.418;0.700;2022-08-21T00:42:54;100519.0185546875;;;18.0;70.18
44531;BME280;30240;47.418;0.700;2022-08-21T00:45:19;100519.11010742188;;;17.9;70.62
44531;BME280;30240;47.418;0.700;2022-08-21T00:47:44;100518.20068359375;;;17.86;70.82
44531;BME280;30240;47.418;0.700;2022-08-21T00:50:10;100525.95825195312;;;17.76;71.07
44531;BME280;30240;47.418;0.700;2022-08-21T00:52:35;100525.95825195312;;;17.76;71.07
44531;BME280;30240;47.418;0.700;2022-08-21T00:54:59;100529.77905273438;;;17.76;71.1
44531;BME280;30240;47.418;0.700;2022-08-21T00:57:28;100520.1904296875;;;17.68;71.29
44531;BME280;30240;47.418;0.700;2022-08-21T00:59:51;100514.89868164062;;;17.63;71.42
44531;BME280;30240;47.418;0.700;2022-08-21T01:02:15;100512.65869140625;;;17.75;71.05
44531;BME280;30240;47.418;0.700;2022-08-21T01:04:39;100512.65869140625;;;17.75;71.05
44531;BME280;30240;47.418;0.700;2022-08-21T01:07:04;100519.970703125;;;17.61;71.21
44531;BME280;30240;47.418;0.700;2022-08-21T01:09:29;100526.31225585938;;;17.62;71.28
44531;BME280;30240;47.418;0.700;2022-08-21T01:11:54;100532.92236328125;;;17.56;71.32
44531;BME280;30240;47.418;0.700;2022-08-21T01:14:19;100539.78271484375;;;17.52;71.37
44531;BME280;30240;47.418;0.700;2022-08-21T01:16:46;100539.78271484375;;;17.52;71.37
44531;BME280;30240;47.418;0.700;2022-08-21T01:19:09;100539.11743164062;;;17.58;71.44
44531;BME280;30240;47.418;0.700;2022-08-21T01:21:34;100541.34521484375;;;17.44;71.7
44531;BME280;30240;47.418;0.700;2022-08-21T01:23:59;100531.56127929688;;;17.38;71.59
44531;BME280;30240;47.418;0.700;2022-08-21T01:26:27;100525.06103515625;;;17.31;71.8
44531;BME280;30240;47.418;0.700;2022-08-21T01:28:52;100520.3125;;;17.28;71.8
44531;BME280;30240;47.418;0.700;2022-08-21T01:31:14;100520.3125;;;17.28;71.8
44531;BME280;30240;47.418;0.700;2022-08-21T01:33:39;100524.49951171875;;;17.34;71.87
44531;BME280;30240;47.418;0.700;2022-08-21T01:36:04;100519.80590820312;;;17.3;71.92
44531;BME280;30240;47.418;0.700;2022-08-21T01:38:29;100517.81005859375;;;17.21;72.12
44531;BME280;30240;47.418;0.700;2022-08-21T01:40:53;100521.84448242188;;;17.21;72.05
44531;BME280;30240;47.418;0.700;2022-08-21T01:43:18;100521.84448242188;;;17.21;72.05
44531;BME280;30240;47.418;0.700;2022-08-21T01:45:44;100512.82958984375;;;17.14;72.08
44531;BME280;30240;47.418;0.700;2022-08-21T01:48:08;100510.99243164062;;;17.26;71.99
44531;BME280;30240;47.418;0.700;2022-08-21T01:50:34;100507.19604492188;;;17.27;71.87
44531;BME280;30240;47.418;0.700;2022-08-21T01:52:58;100507.47680664062;;;17.3;71.78
44531;BME280;30240;47.418;0.700;2022-08-21T01:55:24;100507.47680664062;;;17.3;71.78
44531;BME280;30240;47.418;0.700;2022-08-21T01:57:49;100511.70043945312;;;17.2;71.78
44531;BME280;30240;47.418;0.700;2022-08-21T02:00:16;100512.6708984375;;;17.3;71.67
44531;BME280;30240;47.418;0.700;2022-08-21T02:02:39;100511.63940429688;;;17.16;71.98
44531;BME280;30240;47.418;0.700;2022-08-21T02:05:04;100504.23583984375;;;17.04;72.45
44531;BME280;30240;47.418;0.700;2022-08-21T02:07:35;100504.23583984375;;;17.04;72.45
44531;BME280;30240;47.418;0.700;2022-08-21T02:09:53;100502.03247070312;;;16.94;72.57
44531;BME280;30240;47.418;0.700;2022-08-21T02:12:19;100500.06103515625;;;17.02;72.39
44531;BME280;30240;47.418;0.700;2022-08-21T02:14:43;100503.42407226562;;;16.99;72.73
44531;BME280;30240;47.418;0.700;2022-08-21T02:17:09;100511.41357421875;;;17.2;72.09
44531;BME280;30240;47.418;0.700;2022-08-21T02:19:33;100511.41357421875;;;17.2;72.09
44531;BME280;30240;47.418;0.700;2022-08-21T02:21:58;100518.10913085938;;;17.03;72.48
44531;BME280;30240;47.418;0.700;2022-08-21T02:24:23;100521.01440429688;;;17.03;72.9
44531;BME280;30240;47.418;0.700;2022-08-21T02:26:48;100510.009765625;;;16.99;72.86
44531;BME280;30240;47.418;0.700;2022-08-21T02:29:14;100510.85815429688;;;16.9;73.26
44531;BME280;30240;47.418;0.700;2022-08-21T02:31:39;100510.85815429688;;;16.9;73.26
44531;BME280;30240;47.418;0.700;2022-08-21T02:34:04;100508.50219726562;;;16.78;73.47
44531;BME280;30240;47.418;0.700;2022-08-21T02:36:29;100512.09106445312;;;16.85;73.24
44531;BME280;30240;47.418;0.700;2022-08-21T02:38:54;100506.0302734375;;;16.75;73.45
44531;BME280;30240;47.418;0.700;2022-08-21T02:41:20;100499.462890625;;;16.61;74.19
44531;BME280;30240;47.418;0.700;2022-08-21T02:43:44;100499.462890625;;;16.61;74.19
44531;BME280;30240;47.418;0.700;2022-08-21T02:46:10;100495.86181640625;;;16.58;74.11
44531;BME280;30240;47.418;0.700;2022-08-21T02:48:35;100490.1123046875;;;16.62;74.03
44531;BME280;30240;47.418;0.700;2022-08-21T02:51:01;100495.1904296875;;;16.5;74.53
44531;BME280;30240;47.418;0.700;2022-08-21T02:53:24;100501.4404296875;;;16.4;74.84
44531;BME280;30240;47.418;0.700;2022-08-21T02:55:50;100493.34106445312;;;16.44;74.68
44531;BME280;30240;47.418;0.700;2022-08-21T02:58:15;100493.34106445312;;;16.44;74.68
44531;BME280;30240;47.418;0.700;2022-08-21T03:00:39;100492.73681640625;;;16.45;74.59
44531;BME280;30240;47.418;0.700;2022-08-21T03:03:05;100490.00854492188;;;16.34;75.06
44531;BME280;30240;47.418;0.700;2022-08-21T03:05:30;100486.8896484375;;;16.2;75.49
44531;BME280;30240;47.418;0.700;2022-08-21T03:07:54;100486.49291992188;;;16.31;75.27
44531;BME280;30240;47.418;0.700;2022-08-21T03:10:20;100486.49291992188;;;16.31;75.27
44531;BME280;30240;47.418;0.700;2022-08-21T03:12:44;100495.95336914062;;;16.13;75.7
44531;BME280;30240;47.418;0.700;2022-08-21T03:15:12;100491.5283203125;;;16.01;76.22
44531;BME280;30240;47.418;0.700;2022-08-21T03:17:33;100487.548828125;;;16.12;75.93
44531;BME280;30240;47.418;0.700;2022-08-21T03:19:59;100482.2509765625;;;16.05;76.06
44531;BME280;30240;47.418;0.700;2022-08-21T03:22:24;100482.2509765625;;;16.05;76.06
44531;BME280;30240;47.418;0.700;2022-08-21T03:24:49;100481.14013671875;;;16.12;75.82
44531;BME280;30240;47.418;0.700;2022-08-21T03:27:14;100470.361328125;;;16.24;75.24
44531;BME280;30240;47.418;0.700;2022-08-21T03:29:39;100463.1103515625;;;16.26;75.42
44531;BME280;30240;47.418;0.700;2022-08-21T03:32:04;100460.58349609375;;;16.2;75.37
44531;BME280;30240;47.418;0.700;2022-08-21T03:34:29;100460.58349609375;;;16.2;75.37
44531;BME280;30240;47.418;0.700;2022-08-21T03:36:53;100466.29638671875;;;16.24;75.33
44531;BME280;30240;47.418;0.700;2022-08-21T03:39:19;100474.74975585938;;;16.17;75.52
44531;BME280;30240;47.418;0.700;2022-08-21T03:41:44;100475.44555664062;;;16.14;75.67
44531;BME280;30240;47.418;0.700;2022-08-21T03:44:08;100466.77856445312;;;16.1;75.89
44531;BME280;30240;47.418;0.700;2022-08-21T03:46:34;100466.77856445312;;;16.1;75.89
44531;BME280;30240;47.418;0.700;2022-08-21T03:48:58;100466.37573242188;;;16.14;75.85
44531;BME280;30240;47.418;0.700;2022-08-21T03:51:24;100470.34912109375;;;16.17;75.62
44531;BME280;30240;47.418;0.700;2022-08-21T03:53:49;100462.09106445312;;;16.13;75.76
44531;BME280;30240;47.418;0.700;2022-08-21T03:56:14;100457.33642578125;;;16.21;75.7
44531;BME280;30240;47.418;0.700;2022-08-21T03:58:39;100457.33642578125;;;16.21;75.7
44531;BME280;30240;47.418;0.700;2022-08-21T04:01:05;100457.373046875;;;16.27;75.8
44531;BME280;30240;47.418;0.700;2022-08-21T04:03:29;100464.3798828125;;;16.12;76.6
44531;BME280;30240;47.418;0.700;2022-08-21T04:05:54;100467.2119140625;;;16.03;77.03
44531;BME280;30240;47.418;0.700;2022-08-21T04:08:19;100472.2412109375;;;15.96;77.18
44531;BME280;30240;47.418;0.700;2022-08-21T04:10:45;100472.2412109375;;;15.96;77.18
44531;BME280;30240;47.418;0.700;2022-08-21T04:13:08;100474.71923828125;;;16.02;77.38
44531;BME280;30240;47.418;0.700;2022-08-21T04:15:34;100469.62280273438;;;15.89;78.16
44531;BME280;30240;47.418;0.700;2022-08-21T04:17:59;100474.27978515625;;;15.82;79.0
44531;BME280;30240;47.418;0.700;2022-08-21T04:20:24;100473.3642578125;;;15.82;78.75
44531;BME280;30240;47.418;0.700;2022-08-21T04:22:49;100473.3642578125;;;15.82;78.75
44531;BME280;30240;47.418;0.700;2022-08-21T04:25:14;100476.33056640625;;;15.85;78.64
44531;BME280;30240;47.418;0.700;2022-08-21T04:27:39;100474.90844726562;;;15.86;78.49
44531;BME280;30240;47.418;0.700;2022-08-21T04:30:04;100474.07836914062;;;15.78;78.57
44531;BME280;30240;47.418;0.700;2022-08-21T04:32:28;100469.61669921875;;;15.74;78.78
44531;BME280;30240;47.418;0.700;2022-08-21T04:34:57;100480.13305664062;;;15.71;78.68
44531;BME280;30240;47.418;0.700;2022-08-21T04:37:18;100480.13305664062;;;15.71;78.68
44531;BME280;30240;47.418;0.700;2022-08-21T04:39:44;100494.49462890625;;;15.62;78.84
44531;BME280;30240;47.418;0.700;2022-08-21T04:42:08;100489.12353515625;;;15.62;78.94
44531;BME280;30240;47.418;0.700;2022-08-21T04:44:34;100494.72045898438;;;15.55;79.07
44531;BME280;30240;47.418;0.700;2022-08-21T04:46:58;100492.07763671875;;;15.57;79.26
44531;BME280;30240;47.418;0.700;2022-08-21T04:49:24;100492.07763671875;;;15.57;79.26
44531;BME280;30240;47.418;0.700;2022-08-21T04:51:50;100505.67016601562;;;15.57;79.33
44531;BME280;30240;47.418;0.700;2022-08-21T04:54:16;100514.00146484375;;;15.54;79.67
44531;BME280;30240;47.418;0.700;2022-08-21T04:56:41;100520.8984375;;;15.44;80.14
44531;BME280;30240;47.418;0.700;2022-08-21T04:59:07;100525.10986328125;;;15.47;80.12
44531;BME280;30240;47.418;0.700;2022-08-21T04:59:11;100525.10986328125;;;15.47;80.12
44531;BME280;30240;47.418;0.700;2022-08-21T05:01:30;100525.10986328125;;;15.47;80.12
44531;BME280;30240;47.418;0.700;2022-08-21T05:03:56;100532.77587890625;;;15.34;80.54
44531;BME280;30240;47.418;0.700;2022-08-21T05:06:19;100517.77954101562;;;15.34;80.63
44531;BME280;30240;47.418;0.700;2022-08-21T05:08:45;100505.7373046875;;;15.46;80.4
44531;BME280;30240;47.418;0.700;2022-08-21T05:11:09;100513.05541992188;;;15.34;80.89
44531;BME280;30240;47.418;0.700;2022-08-21T05:13:35;100513.05541992188;;;15.34;80.89
44531;BME280;30240;47.418;0.700;2022-08-21T05:15:58;100520.78247070312;;;15.26;81.46
44531;BME280;30240;47.418;0.700;2022-08-21T05:18:24;100528.35693359375;;;15.27;81.49
44531;BME280;30240;47.418;0.700;2022-08-21T05:20:48;100535.43090820312;;;15.32;81.54
44531;BME280;30240;47.418;0.700;2022-08-21T05:23:14;100537.744140625;;;15.19;82.3
44531;BME280;30240;47.418;0.700;2022-08-21T05:25:39;100537.744140625;;;15.19;82.3
44531;BME280;30240;47.418;0.700;2022-08-21T05:28:04;100537.34130859375;;;15.15;82.94
44531;BME280;30240;47.418;0.700;2022-08-21T05:30:28;100538.07983398438;;;15.12;83.38
44531;BME280;30240;47.418;0.700;2022-08-21T05:32:56;100539.03198242188;;;15.16;83.33
44531;BME280;30240;47.418;0.700;2022-08-21T05:35:19;100538.31176757812;;;15.09;83.94
44531;BME280;30240;47.418;0.700;2022-08-21T05:37:44;100538.31176757812;;;15.09;83.94
44531;BME280;30240;47.418;0.700;2022-08-21T05:40:09;100536.2060546875;;;15.19;83.74
44531;BME280;30240;47.418;0.700;2022-08-21T05:42:34;100536.74926757812;;;15.19;83.59
44531;BME280;30240;47.418;0.700;2022-08-21T05:44:58;100532.5927734375;;;15.08;84.01
44531;BME280;30240;47.418;0.700;2022-08-21T05:47:23;100533.26416015625;;;15.25;83.65
44531;BME280;30240;47.418;0.700;2022-08-21T05:49:48;100533.26416015625;;;15.25;83.65
44531;BME280;30240;47.418;0.700;2022-08-21T05:52:18;100524.609375;;;15.25;83.63
44531;BME280;30240;47.418;0.700;2022-08-21T05:54:38;100527.294921875;;;15.4;83.35
44531;BME280;30240;47.418;0.700;2022-08-21T05:57:03;100525.17700195312;;;15.19;84.31
44531;BME280;30240;47.418;0.700;2022-08-21T05:59:28;100527.67333984375;;;15.37;83.67
44531;BME280;30240;47.418;0.700;2022-08-21T06:01:53;100538.76342773438;;;15.15;84.37
44531;BME280;30240;47.418;0.700;2022-08-21T06:04:19;100538.76342773438;;;15.15;84.37
44531;BME280;30240;47.418;0.700;2022-08-21T06:06:43;100533.94775390625;;;15.2;84.32
44531;BME280;30240;47.418;0.700;2022-08-21T06:09:08;100535.38818359375;;;15.26;84.24
44531;BME280;30240;47.418;0.700;2022-08-21T06:11:34;100536.21826171875;;;15.33;84.17
44531;BME280;30240;47.418;0.700;2022-08-21T06:13:59;100543.07250976562;;;15.16;84.81
44531;BME280;30240;47.418;0.700;2022-08-21T06:16:24;100543.07250976562;;;15.16;84.81
44531;BME280;30240;47.418;0.700;2022-08-21T06:18:49;100536.3037109375;;;15.37;84.04
44531;BME280;30240;47.418;0.700;2022-08-21T06:21:14;100528.93676757812;;;15.57;83.84
44531;BME280;30240;47.418;0.700;2022-08-21T06:23:39;100529.0283203125;;;15.65;83.62
44531;BME280;30240;47.418;0.700;2022-08-21T06:26:05;100539.7216796875;;;15.75;82.76
44531;BME280;30240;47.418;0.700;2022-08-21T06:28:28;100539.7216796875;;;15.75;82.76
44531;BME280;30240;47.418;0.700;2022-08-21T06:30:53;100537.85400390625;;;15.81;82.82
44531;BME280;30240;47.418;0.700;2022-08-21T06:33:19;100526.86157226562;;;15.53;83.96
44531;BME280;30240;47.418;0.700;2022-08-21T06:35:43;100517.55981445312;;;15.71;83.53
44531;BME280;30240;47.418;0.700;2022-08-21T06:38:08;100523.37646484375;;;16.17;81.92
44531;BME280;30240;47.418;0.700;2022-08-21T06:40:34;100523.37646484375;;;16.17;81.92
44531;BME280;30240;47.418;0.700;2022-08-21T06:43:06;100518.39599609375;;;16.45;81.2
44531;BME280;30240;47.418;0.700;2022-08-21T06:45:24;100520.79467773438;;;16.12;82.22
44531;BME280;30240;47.418;0.700;2022-08-21T06:47:48;100527.26440429688;;;16.75;79.96
44531;BME280;30240;47.418;0.700;2022-08-21T06:50:13;100533.31298828125;;;16.38;81.8
44531;BME280;30240;47.418;0.700;2022-08-21T06:52:39;100533.31298828125;;;16.38;81.8
44531;BME280;30240;47.418;0.700;2022-08-21T06:55:05;100530.126953125;;;16.35;81.55
44531;BME280;30240;47.418;0.700;2022-08-21T06:57:28;100533.55712890625;;;16.03;82.63
44531;BME280;30240;47.418;0.700;2022-08-21T06:59:53;100541.48559570312;;;16.33;82.15
44531;BME280;30240;47.418;0.700;2022-08-21T07:02:18;100549.8291015625;;;16.19;82.38
44531;BME280;30240;47.418;0.700;2022-08-21T07:04:44;100549.8291015625;;;16.19;82.38
44531;BME280;30240;47.418;0.700;2022-08-21T07:07:09;100556.01806640625;;;16.31;82.02
44531;BME280;30240;47.418;0.700;2022-08-21T07:09:34;100551.39770507812;;;16.17;82.69
44531;BME280;30240;47.418;0.700;2022-08-21T07:11:59;100558.7646484375;;;16.05;82.64
44531;BME280;30240;47.418;0.700;2022-08-21T07:14:24;100549.05395507812;;;16.08;83.26
44531;BME280;30240;47.418;0.700;2022-08-21T07:16:49;100549.05395507812;;;16.08;83.26
44531;BME280;30240;47.418;0.700;2022-08-21T07:19:13;100538.25073242188;;;16.78;80.45
44531;BME280;30240;47.418;0.700;2022-08-21T07:21:38;100539.0625;;;16.94;79.81
44531;BME280;30240;47.418;0.700;2022-08-21T07:24:04;100529.54711914062;;;16.76;80.18
44531;BME280;30240;47.418;0.700;2022-08-21T07:26:28;100521.826171875;;;17.3;78.81
44531;BME280;30240;47.418;0.700;2022-08-21T07:28:53;100521.826171875;;;17.3;78.81
44531;BME280;30240;47.418;0.700;2022-08-21T07:31:21;100515.97900390625;;;17.53;78.18
44531;BME280;30240;47.418;0.700;2022-08-21T07:33:44;100506.95190429688;;;17.75;78.05
44531;BME280;30240;47.418;0.700;2022-08-21T07:36:09;100502.392578125;;;17.8;76.82
44531;BME280;30240;47.418;0.700;2022-08-21T07:38:34;100495.93505859375;;;17.97;76.7
44531;BME280;30240;47.418;0.700;2022-08-21T07:41:00;100497.12524414062;;;18.0;76.88
44531;BME280;30240;47.418;0.700;2022-08-21T07:43:24;100497.12524414062;;;18.0;76.88
44531;BME280;30240;47.418;0.700;2022-08-21T07:45:49;100501.7822265625;;;17.9;77.73
44531;BME280;30240;47.418;0.700;2022-08-21T07:48:13;100506.67114257812;;;17.38;79.11
44531;BME280;30240;47.418;0.700;2022-08-21T07:50:39;100515.0390625;;;17.38;79.6
44531;BME280;30240;47.418;0.700;2022-08-21T07:53:03;100520.37353515625;;;16.82;81.62
44531;BME280;30240;47.418;0.700;2022-08-21T07:55:28;100520.37353515625;;;16.82;81.62
44531;BME280;30240;47.418;0.700;2022-08-21T07:57:54;100515.29541015625;;;17.09;80.22
44531;BME280;30240;47.418;0.700;2022-08-21T08:00:21;100505.76782226562;;;17.55;79.14
44531;BME280;30240;47.418;0.700;2022-08-21T08:02:45;100498.01635742188;;;17.73;78.57
44531;BME280;30240;47.418;0.700;2022-08-21T08:05:10;100488.92211914062;;;17.69;78.31
44531;BME280;30240;47.418;0.700;2022-08-21T08:07:33;100488.92211914062;;;17.69;78.31
44531;BME280;30240;47.418;0.700;2022-08-21T08:09:58;100484.716796875;;;18.17;77.46
44531;BME280;30240;47.418;0.700;2022-08-21T08:12:24;100486.865234375;;;18.35;76.69
44531;BME280;30240;47.418;0.700;2022-08-21T08:14:48;100492.76733398438;;;18.1;77.51
44531;BME280;30240;47.418;0.700;2022-08-21T08:17:13;100498.68774414062;;;18.17;77.49
44531;BME280;30240;47.418;0.700;2022-08-21T08:19:39;100498.68774414062;;;18.17;77.49
44531;BME280;30240;47.418;0.700;2022-08-21T08:22:12;100512.17041015625;;;17.94;77.95
44531;BME280;30240;47.418;0.700;2022-08-21T08:24:28;100506.01806640625;;;17.91;78.18
44531;BME280;30240;47.418;0.700;2022-08-21T08:26:53;100520.20874023438;;;17.49;79.63
44531;BME280;30240;47.418;0.700;2022-08-21T08:29:18;100517.54760742188;;;17.52;79.7
44531;BME280;30240;47.418;0.700;2022-08-21T08:31:43;100517.54760742188;;;17.52;79.7
44531;BME280;30240;47.418;0.700;2022-08-21T08:34:08;100507.23266601562;;;17.87;78.94
44531;BME280;30240;47.418;0.700;2022-08-21T08:36:35;100498.7548828125;;;18.28;77.05
44531;BME280;30240;47.418;0.700;2022-08-21T08:38:59;100508.20922851562;;;17.69;79.0
44531;BME280;30240;47.418;0.700;2022-08-21T08:41:23;100518.38989257812;;;17.45;79.58
44531;BME280;30240;47.418;0.700;2022-08-21T08:43:50;100518.38989257812;;;17.45;79.58
44531;BME280;30240;47.418;0.700;2022-08-21T08:46:15;100519.52514648438;;;17.75;79.5
44531;BME280;30240;47.418;0.700;2022-08-21T08:48:43;100532.01293945312;;;17.49;79.61
44531;BME280;30240;47.418;0.700;2022-08-21T08:51:06;100526.66625976562;;;17.61;79.87
44531;BME280;30240;47.418;0.700;2022-08-21T08:53:32;100526.26342773438;;;17.93;79.29
44531;BME280;30240;47.418;0.700;2022-08-21T08:55:53;100526.26342773438;;;17.93;79.29
44531;BME280;30240;47.418;0.700;2022-08-21T08:58:23;100520.84350585938;;;17.98;78.97
44531;BME280;30240;47.418;0.700;2022-08-21T09:00:46;100519.21997070312;;;17.89;79.47
44531;BME280;30240;47.418;0.700;2022-08-21T09:03:08;100518.64013671875;;;18.15;77.71
44531;BME280;30240;47.418;0.700;2022-08-21T09:05:40;100529.63256835938;;;17.52;79.7
44531;BME280;30240;47.418;0.700;2022-08-21T09:08:16;100532.8125;;;17.62;79.22
44531;BME280;30240;47.418;0.700;2022-08-21T09:10:37;100532.8125;;;17.62;79.22
44531;BME280;30240;47.418;0.700;2022-08-21T09:10:38;100532.8125;;;17.62;79.22
44531;BME280;30240;47.418;0.700;2022-08-21T09:10:52;100532.8125;;;17.62;79.22
44531;BME280;30240;47.418;0.700;2022-08-21T09:10:53;100532.8125;;;17.62;79.22
44531;BME280;30240;47.418;0.700;2022-08-21T09:10:57;100532.8125;;;17.62;79.22
44531;BME280;30240;47.418;0.700;2022-08-21T09:12:59;100529.37622070312;;;17.76;79.02
44531;BME280;30240;47.418;0.700;2022-08-21T09:12:59;100529.37622070312;;;17.76;79.02
44531;BME280;30240;47.418;0.700;2022-08-21T09:15:20;100528.99780273438;;;17.87;78.59
44531;BME280;30240;47.418;0.700;2022-08-21T09:18:01;100531.95190429688;;;17.87;78.69
44531;BME280;30240;47.418;0.700;2022-08-21T09:20:14;100524.07836914062;;;18.04;78.69
44531;BME280;30240;47.418;0.700;2022-08-21T09:20:19;100524.07836914062;;;18.04;78.69
44531;BME280;30240;47.418;0.700;2022-08-21T09:20:23;100524.07836914062;;;18.04;78.69
44531;BME280;30240;47.418;0.700;2022-08-21T09:22:39;100524.07836914062;;;18.04;78.69
44531;BME280;30240;47.418;0.700;2022-08-21T09:25:08;100528.59497070312;;;18.01;78.26
44531;BME280;30240;47.418;0.700;2022-08-21T09:25:11;100528.59497070312;;;18.01;78.26
44531;BME280;30240;47.418;0.700;2022-08-21T09:27:19;100522.27172851562;;;18.21;78.11
44531;BME280;30240;47.418;0.700;2022-08-21T09:29:47;100512.890625;;;18.6;76.95
44531;BME280;30240;47.418;0.700;2022-08-21T09:32:16;100523.9990234375;;;18.71;76.05
44531;BME280;30240;47.418;0.700;2022-08-21T09:34:34;100523.9990234375;;;18.71;76.05
44531;BME280;30240;47.418;0.700;2022-08-21T09:36:59;100518.71948242188;;;18.62;76.66
44531;BME280;30240;47.418;0.700;2022-08-21T09:39:27;100527.03247070312;;;19.5;73.62
44531;BME280;30240;47.418;0.700;2022-08-21T09:41:56;100520.36743164062;;;19.7;74.16
44531;BME280;30240;47.418;0.700;2022-08-21T09:44:26;100523.57177734375;;;19.46;73.75
44531;BME280;30240;47.418;0.700;2022-08-21T09:46:50;100523.57177734375;;;19.46;73.75
44531;BME280;30240;47.418;0.700;2022-08-21T09:49:04;100507.95288085938;;;19.96;73.08
44531;BME280;30240;47.418;0.700;2022-08-21T09:51:31;100509.46044921875;;;20.2;71.09
44531;BME280;30240;47.418;0.700;2022-08-21T09:53:57;100509.28955078125;;;20.39;70.95
44531;BME280;30240;47.418;0.700;2022-08-21T09:56:21;100506.43920898438;;;20.11;71.32
44531;BME280;30240;47.418;0.700;2022-08-21T09:58:47;100506.43920898438;;;20.11;71.32
44531;BME280;30240;47.418;0.700;2022-08-21T10:01:13;100499.31030273438;;;20.18;71.87
44531;BME280;30240;47.418;0.700;2022-08-21T10:03:33;100498.4130859375;;;21.47;68.34
44531;BME280;30240;47.418;0.700;2022-08-21T10:06:03;100491.2353515625;;;21.53;67.63
44531;BME280;30240;47.418;0.700;2022-08-21T10:08:26;100485.546875;;;21.54;66.23
44531;BME280;30240;47.418;0.700;2022-08-21T10:10:51;100485.546875;;;21.54;66.23
44531;BME280;30240;47.418;0.700;2022-08-21T10:13:19;100488.76342773438;;;22.36;63.31
44531;BME280;30240;47.418;0.700;2022-08-21T10:15:49;100487.21923828125;;;21.9;63.68
44531;BME280;30240;47.418;0.700;2022-08-21T10:18:10;100482.56225585938;;;21.03;66.14
44531;BME280;30240;47.418;0.700;2022-08-21T10:20:35;100472.96752929688;;;21.22;66.38
44531;BME280;30240;47.418;0.700;2022-08-21T10:23:02;100472.96752929688;;;21.22;66.38
44531;BME280;30240;47.418;0.700;2022-08-21T10:25:21;100491.37573242188;;;20.74;67.12
44531;BME280;30240;47.418;0.700;2022-08-21T10:27:47;100496.49047851562;;;20.63;66.78
44531;BME280;30240;47.418;0.700;2022-08-21T10:30:13;100508.31298828125;;;20.41;67.95
44531;BME280;30240;47.418;0.700;2022-08-21T10:32:43;100507.7392578125;;;20.78;66.9
44531;BME280;30240;47.418;0.700;2022-08-21T10:32:50;100507.7392578125;;;20.78;66.9
44531;BME280;30240;47.418;0.700;2022-08-21T10:32:57;100507.7392578125;;;20.78;66.9
44531;BME280;30240;47.418;0.700;2022-08-21T10:35:02;100493.63403320312;;;22.12;63.33
44531;BME280;30240;47.418;0.700;2022-08-21T10:35:08;100493.63403320312;;;22.12;63.33
44531;BME280;30240;47.418;0.700;2022-08-21T10:37:44;100493.63403320312;;;22.12;63.33
44531;BME280;30240;47.418;0.700;2022-08-21T10:39:56;100484.34448242188;;;22.41;62.04
44531;BME280;30240;47.418;0.700;2022-08-21T10:42:23;100485.91918945312;;;22.38;61.75
44531;BME280;30240;47.418;0.700;2022-08-21T10:44:42;100485.77880859375;;;21.72;63.48
44531;BME280;30240;47.418;0.700;2022-08-21T10:44:48;100485.77880859375;;;21.72;63.48
44531;BME280;30240;47.418;0.700;2022-08-21T10:47:06;100488.12255859375;;;21.79;63.23
44531;BME280;30240;47.418;0.700;2022-08-21T10:49:39;100488.12255859375;;;21.79;63.23
44531;BME280;30240;47.418;0.700;2022-08-21T10:52:01;100484.57641601562;;;21.92;62.6